Overview Statistics Trail Chart Weather Telemetry Raw packets
 

This is the latest recevied weather packets stored in our database for station/object KD4EG. If no packets are shown the sender has not sent any weather packets the latest 10 day(s).

<< 2 3 4 5 6 7 8 >>
Time Temp. Humidity Pressure Rain* Wind** Luminosity Snow
1788629875 29.44° C 61% 1014.7 hPa 0 mm - 166 W/m² -
1788629571 29.44° C 61% 1014.8 hPa 0 mm - 147 W/m² -
1788629271 30° C 61% 1014.9 hPa 0 mm - 164 W/m² -
1788628969 30° C 61% 1014.9 hPa 0 mm - 196 W/m² -
1788628666 30° C 61% 1014.7 hPa 0 mm - 240 W/m² -
1788628362 30° C 61% 1014.9 hPa 0 mm - 258 W/m² -
1788628058 30° C 61% 1015.2 hPa 0 mm - 280 W/m² -
1788627753 30° C 62% 1015 hPa 0 mm - 372 W/m² -
1788627453 30° C 63% 1015 hPa 0 mm - 343 W/m² -
1788627148 30° C 62% 1015.3 hPa 0 mm - 336 W/m² -
1788626848 29.44° C 63% 1015.3 hPa 0 mm - 374 W/m² -
1788626543 29.44° C 63% 1015.4 hPa 0 mm - 400 W/m² -
1788626239 29.44° C 64% 1015.8 hPa 0 mm - 448 W/m² -
1788625935 29.44° C 63% 1015.4 hPa 0 mm - 494 W/m² -
1788625631 28.89° C 64% 1015.8 hPa 0 mm - 590 W/m² -
1788625330 28.89° C 65% 1015.8 hPa 0 mm - 614 W/m² -
1788625025 28.89° C 64% 1016 hPa 0 mm - 354 W/m² -
1788624723 28.89° C 66% 1015.7 hPa 0 mm - 303 W/m² -
1788624417 28.33° C 67% 1015.8 hPa 0 mm - 393 W/m² -
1788624115 28.33° C 67% 1015.9 hPa 0 mm - 211 W/m² -
1788623810 28.89° C 65% 1016.5 hPa 0 mm - 255 W/m² -
1788623509 28.89° C 64% 1016 hPa 0 mm - 261 W/m² -
1788623204 28.89° C 64% 1016.4 hPa 0 mm - 261 W/m² -
1788622899 28.89° C 67% 1016.7 hPa 0 mm - 754 W/m² -
1788622595 28.33° C 67% 1016.8 hPa 0 mm - 495 W/m² -

* Rain latest hour (hover to see other rain measurements)
** Current wind speed in m/s (hover to see current wind gust speed)